Time;durP1;ratioP1;P1;durP2;ratioP2;P2;SDS_P1;SDS_P2;PMS_P1;PMS_P2;Temp;Humidity;BMP_temperature;BMP_pressure;BME280_temperature;BME280_humidity;BME280_pressure;Samples;Min_cycle;Max_cycle;Signal;HPM_P1;HPM_P2
2022/09/10 00:00:35;;;;;;;;;;;16.00;86.70;;;;;;5053394;28;19995;-82
2022/09/10 00:03:01;;;;;;;;;;;16.00;86.70;;;;;;5054391;28;20119;-81
2022/09/10 00:05:26;;;;;;;;;;;16.00;86.60;;;;;;5053219;28;19917;-81
2022/09/10 00:07:52;;;;;;;;;;;15.90;86.60;;;;;;5051898;28;19958;-82
2022/09/10 00:10:18;;;;;;;;;;;16.00;86.40;;;;;;5051844;28;19917;-82
2022/09/10 00:12:47;;;;;;;;;;;16.00;86.70;;;;;;5056168;28;19916;-81
2022/09/10 00:15:13;;;;;;;;;;;16.00;86.70;;;;;;5054267;28;20375;-81
2022/09/10 00:17:38;;;;;;;;;;;16.10;86.70;;;;;;5054300;28;19916;-82
2022/09/10 00:20:04;;;;;;;;;;;16.00;86.60;;;;;;5054667;28;20331;-81
2022/09/10 00:22:29;;;;;;;;;;;16.10;86.10;;;;;;5054641;28;19913;-81
2022/09/10 00:24:58;;;;;;;;;;;16.20;85.60;;;;;;5054805;28;20295;-81
2022/09/10 00:27:24;;;;;;;;;;;16.20;85.70;;;;;;5053918;28;20299;-79
2022/09/10 00:29:50;;;;;;;;;;;16.20;86.00;;;;;;5049951;28;19911;-81
2022/09/10 00:32:16;;;;;;;;;;;16.30;85.70;;;;;;5048271;28;20008;-81
2022/09/10 00:34:41;;;;;;;;;;;16.30;85.60;;;;;;5044668;28;20012;-80
2022/09/10 00:37:06;;;;;;;;;;;16.30;85.50;;;;;;5053687;28;19920;-80
2022/09/10 00:39:32;;;;;;;;;;;16.30;85.20;;;;;;5052761;28;20443;-80
2022/09/10 00:41:58;;;;;;;;;;;16.30;84.90;;;;;;5052138;28;20497;-80
2022/09/10 00:44:36;;;;;;;;;;;16.40;84.60;;;;;;5051925;28;19909;-81
2022/09/10 00:47:02;;;;;;;;;;;16.30;84.80;;;;;;5051613;28;19919;-81
2022/09/10 00:49:32;;;;;;;;;;;16.20;85.00;;;;;;5051666;28;19959;-80
2022/09/10 00:51:59;;;;;;;;;;;16.20;85.20;;;;;;5045250;28;20379;-80
2022/09/10 00:54:26;;;;;;;;;;;16.20;85.20;;;;;;5049571;28;19919;-81
2022/09/10 00:56:53;;;;;;;;;;;16.20;85.60;;;;;;5053838;28;19916;-81
2022/09/10 00:59:20;;;;;;;;;;;16.30;85.10;;;;;;5050175;28;19967;-80
2022/09/10 01:01:46;;;;;;;;;;;16.20;85.00;;;;;;5061298;28;20284;-80
2022/09/10 01:04:11;;;;;;;;;;;16.20;84.90;;;;;;5065923;28;19909;-81
2022/09/10 01:06:39;;;;;;;;;;;16.20;84.90;;;;;;5051242;28;19924;-81
2022/09/10 01:09:05;;;;;;;;;;;16.10;85.30;;;;;;5053965;28;19920;-81
2022/09/10 01:11:33;;;;;;;;;;;16.30;85.20;;;;;;5057373;28;19912;-80
2022/09/10 01:14:01;;;;;;;;;;;16.30;84.30;;;;;;5058513;28;19917;-81
2022/09/10 01:16:35;;;;;;;;;;;16.30;84.50;;;;;;5052345;28;20008;-80
2022/09/10 01:19:20;;;;;;;;;;;16.20;84.80;;;;;;5051804;28;19920;-81
2022/09/10 01:21:53;;;;;;;;;;;16.10;84.50;;;;;;5045522;28;20398;-80
2022/09/10 01:24:29;;;;;;;;;;;16.10;85.10;;;;;;5047890;28;19917;-80
2022/09/10 01:27:11;;;;;;;;;;;16.10;85.20;;;;;;5051966;28;19928;-80
2022/09/10 01:29:49;;;;;;;;;;;16.10;85.00;;;;;;5046371;28;19913;-80
2022/09/10 01:32:24;;;;;;;;;;;16.10;84.90;;;;;;5053253;28;19916;-80
2022/09/10 01:34:53;;;;;;;;;;;16.20;84.30;;;;;;5048679;28;19917;-80
2022/09/10 01:37:24;;;;;;;;;;;16.10;84.00;;;;;;5045728;28;19909;-79
2022/09/10 01:39:50;;;;;;;;;;;16.10;84.30;;;;;;5054161;28;20607;-80
2022/09/10 01:42:16;;;;;;;;;;;16.10;84.70;;;;;;5049443;28;20334;-80
2022/09/10 01:44:46;;;;;;;;;;;16.10;84.80;;;;;;5053122;28;19916;-80
2022/09/10 01:47:16;;;;;;;;;;;16.10;85.10;;;;;;5054092;28;19913;-80
2022/09/10 01:50:00;;;;;;;;;;;16.10;85.10;;;;;;5041426;28;20015;-80
2022/09/10 01:52:34;;;;;;;;;;;16.10;85.20;;;;;;5049363;28;19971;-80
2022/09/10 01:55:09;;;;;;;;;;;16.00;85.10;;;;;;5046087;28;20442;-80
2022/09/10 01:57:41;;;;;;;;;;;16.00;85.00;;;;;;5052465;28;20367;-80
2022/09/10 02:00:14;;;;;;;;;;;16.00;84.90;;;;;;5044382;28;20391;-80
2022/09/10 02:02:43;;;;;;;;;;;16.00;85.00;;;;;;5049146;28;19913;-80
2022/09/10 02:05:09;;;;;;;;;;;16.00;85.70;;;;;;5054393;28;19923;-80
2022/09/10 02:07:35;;;;;;;;;;;16.00;85.90;;;;;;5048465;28;19917;-80
2022/09/10 02:10:05;;;;;;;;;;;15.90;86.10;;;;;;5045599;28;19919;-79
2022/09/10 02:12:31;;;;;;;;;;;15.90;86.30;;;;;;5044801;28;19913;-80
2022/09/10 02:14:57;;;;;;;;;;;15.90;86.10;;;;;;5047719;28;20406;-79
2022/09/10 02:17:25;;;;;;;;;;;16.00;85.90;;;;;;5056809;28;20432;-79
2022/09/10 02:19:52;;;;;;;;;;;16.00;86.00;;;;;;5051864;28;19968;-79
2022/09/10 02:22:19;;;;;;;;;;;16.00;86.20;;;;;;5056698;28;19917;-79
2022/09/10 02:24:45;;;;;;;;;;;15.90;85.80;;;;;;5051348;28;20042;-79
2022/09/10 02:27:11;;;;;;;;;;;15.80;85.80;;;;;;5054620;28;19913;-80
2022/09/10 02:29:37;;;;;;;;;;;16.00;85.50;;;;;;5054233;28;20284;-79
2022/09/10 02:32:05;;;;;;;;;;;16.10;84.90;;;;;;5054867;28;19998;-79
2022/09/10 02:34:30;;;;;;;;;;;16.10;84.50;;;;;;5050165;28;19913;-79
2022/09/10 02:36:56;;;;;;;;;;;16.10;84.40;;;;;;5054770;28;20012;-79
2022/09/10 02:39:22;;;;;;;;;;;16.00;84.70;;;;;;5054537;28;20194;-79
2022/09/10 02:41:47;;;;;;;;;;;16.00;85.40;;;;;;5054237;28;20395;-79
2022/09/10 02:44:13;;;;;;;;;;;16.00;85.00;;;;;;5054457;28;19951;-80
2022/09/10 02:46:38;;;;;;;;;;;16.10;85.00;;;;;;5056042;28;19964;-79
2022/09/10 02:49:05;;;;;;;;;;;16.10;84.90;;;;;;5049317;28;19917;-79
2022/09/10 02:51:30;;;;;;;;;;;16.10;84.40;;;;;;5054703;28;19913;-79
2022/09/10 02:53:55;;;;;;;;;;;16.00;84.70;;;;;;5050286;28;19917;-79
2022/09/10 02:56:22;;;;;;;;;;;16.10;84.90;;;;;;5054454;28;20000;-79
2022/09/10 02:58:48;;;;;;;;;;;16.20;84.30;;;;;;5053446;28;20059;-79
2022/09/10 03:01:18;;;;;;;;;;;16.20;84.30;;;;;;5051904;28;20011;-80
2022/09/10 03:03:47;;;;;;;;;;;16.20;84.30;;;;;;5047259;28;19912;-80
2022/09/10 03:06:13;;;;;;;;;;;16.30;84.40;;;;;;5054520;28;19917;-80
2022/09/10 03:08:38;;;;;;;;;;;16.20;84.20;;;;;;5047639;28;20046;-80
2022/09/10 03:11:04;;;;;;;;;;;16.20;84.40;;;;;;5054650;28;19948;-80
2022/09/10 03:13:29;;;;;;;;;;;16.20;85.10;;;;;;5052572;28;19948;-80
2022/09/10 03:15:55;;;;;;;;;;;16.30;84.40;;;;;;5053408;28;19940;-79
2022/09/10 03:18:23;;;;;;;;;;;16.30;84.40;;;;;;5051979;28;19955;-79
2022/09/10 03:20:49;;;;;;;;;;;16.30;84.40;;;;;;5054973;28;19917;-79
2022/09/10 03:23:15;;;;;;;;;;;16.30;84.20;;;;;;5049403;28;20335;-79
2022/09/10 03:25:41;;;;;;;;;;;16.20;84.20;;;;;;5053142;28;19952;-79
2022/09/10 03:28:06;;;;;;;;;;;16.20;84.40;;;;;;5055795;28;19913;-79
2022/09/10 03:30:32;;;;;;;;;;;16.30;84.20;;;;;;5060705;28;19936;-79
2022/09/10 03:32:57;;;;;;;;;;;16.30;84.70;;;;;;5058886;28;19917;-80
2022/09/10 03:35:23;;;;;;;;;;;16.40;84.50;;;;;;5054759;28;19909;-80
2022/09/10 03:37:48;;;;;;;;;;;16.30;84.80;;;;;;5055451;28;20379;-79
2022/09/10 03:40:14;;;;;;;;;;;16.30;84.50;;;;;;5047765;28;20395;-79
2022/09/10 03:42:41;;;;;;;;;;;16.20;84.80;;;;;;5053241;28;19963;-80
2022/09/10 03:45:07;;;;;;;;;;;16.20;84.80;;;;;;5052932;28;19970;-80
2022/09/10 03:47:32;;;;;;;;;;;16.20;85.00;;;;;;5054210;28;19912;-80
2022/09/10 03:49:58;;;;;;;;;;;16.30;85.20;;;;;;5052552;28;19920;-79
2022/09/10 03:52:25;;;;;;;;;;;16.30;85.20;;;;;;5053183;28;19913;-79
2022/09/10 03:54:50;;;;;;;;;;;16.40;85.30;;;;;;5046781;28;20440;-80
2022/09/10 03:57:16;;;;;;;;;;;16.40;85.20;;;;;;5044923;28;19974;-80
2022/09/10 03:59:41;;;;;;;;;;;16.50;85.30;;;;;;5047871;28;20326;-80
2022/09/10 04:02:10;;;;;;;;;;;16.40;85.30;;;;;;5049548;28;19920;-80
2022/09/10 04:04:38;;;;;;;;;;;16.40;85.40;;;;;;5052013;28;19965;-80
2022/09/10 04:07:04;;;;;;;;;;;16.30;85.60;;;;;;5053449;28;20002;-80
2022/09/10 04:09:31;;;;;;;;;;;16.40;85.90;;;;;;5053122;28;19917;-80
2022/09/10 04:11:57;;;;;;;;;;;16.40;85.30;;;;;;5053487;28;20563;-80
2022/09/10 04:14:23;;;;;;;;;;;16.30;85.50;;;;;;5052499;28;20004;-80
2022/09/10 04:16:48;;;;;;;;;;;16.40;85.70;;;;;;5065949;28;19971;-80
2022/09/10 04:19:14;;;;;;;;;;;16.30;85.70;;;;;;5063317;28;19944;-79
2022/09/10 04:21:40;;;;;;;;;;;16.30;85.90;;;;;;5048808;28;19913;-80
2022/09/10 04:24:08;;;;;;;;;;;16.30;86.40;;;;;;5052479;28;19917;-79
2022/09/10 04:26:34;;;;;;;;;;;16.20;86.50;;;;;;5052608;28;19917;-80
2022/09/10 04:28:59;;;;;;;;;;;16.20;86.80;;;;;;5050512;28;19913;-79
2022/09/10 04:31:25;;;;;;;;;;;16.10;86.50;;;;;;5052069;28;19921;-79
2022/09/10 04:33:50;;;;;;;;;;;16.10;87.20;;;;;;5052629;28;19935;-79
2022/09/10 04:36:16;;;;;;;;;;;16.20;86.80;;;;;;5052301;28;20012;-79
2022/09/10 04:38:42;;;;;;;;;;;16.20;87.10;;;;;;5053425;28;19916;-79
2022/09/10 04:41:08;;;;;;;;;;;16.10;87.00;;;;;;5044736;28;19921;-79
2022/09/10 04:43:34;;;;;;;;;;;16.10;87.10;;;;;;5052416;28;20383;-80
2022/09/10 04:45:59;;;;;;;;;;;16.10;87.30;;;;;;5051300;28;20066;-79
2022/09/10 04:48:25;;;;;;;;;;;16.10;87.30;;;;;;5052139;28;19908;-79
2022/09/10 04:50:50;;;;;;;;;;;16.10;87.80;;;;;;5049373;28;20314;-79
2022/09/10 04:53:16;;;;;;;;;;;16.10;87.70;;;;;;5049975;28;19913;-78
2022/09/10 04:55:43;;;;;;;;;;;16.10;87.40;;;;;;5045167;28;20425;-79
2022/09/10 04:58:09;;;;;;;;;;;16.20;87.60;;;;;;5039635;28;20128;-79
2022/09/10 05:00:34;;;;;;;;;;;16.10;87.10;;;;;;5049984;28;19920;-79
2022/09/10 05:03:00;;;;;;;;;;;16.10;87.20;;;;;;5051024;28;19924;-79
2022/09/10 05:05:25;;;;;;;;;;;16.10;87.50;;;;;;5050711;28;19917;-78
2022/09/10 05:07:52;;;;;;;;;;;16.10;87.90;;;;;;4906477;22;19932;-82
2022/09/10 05:10:20;;;;;;;;;;;16.20;87.40;;;;;;5043620;28;19913;-82
2022/09/10 05:12:47;;;;;;;;;;;16.10;87.70;;;;;;5034252;28;20008;-82
2022/09/10 05:15:12;;;;;;;;;;;16.20;87.60;;;;;;5033021;28;19939;-83
2022/09/10 05:17:38;;;;;;;;;;;16.10;87.70;;;;;;5034485;28;19925;-82
2022/09/10 05:20:06;;;;;;;;;;;16.20;87.30;;;;;;5013462;28;19917;-82
2022/09/10 05:22:33;;;;;;;;;;;16.20;87.10;;;;;;5031169;28;20291;-82
2022/09/10 05:24:59;;;;;;;;;;;16.20;87.10;;;;;;4999891;28;20376;-84
2022/09/10 05:27:24;;;;;;;;;;;16.20;87.60;;;;;;5031716;28;19923;-82
2022/09/10 05:29:49;;;;;;;;;;;16.30;87.70;;;;;;5040234;28;19917;-82
2022/09/10 05:32:15;;;;;;;;;;;16.40;86.90;;;;;;5016346;28;19916;-82
2022/09/10 05:34:40;;;;;;;;;;;16.30;87.40;;;;;;5018399;28;19924;-82
2022/09/10 05:37:07;;;;;;;;;;;16.20;87.40;;;;;;5021611;28;19919;-82
2022/09/10 05:39:33;;;;;;;;;;;16.20;87.50;;;;;;5021833;28;19960;-82
2022/09/10 05:41:59;;;;;;;;;;;16.20;88.10;;;;;;5031152;28;19941;-82
2022/09/10 05:44:25;;;;;;;;;;;16.30;88.00;;;;;;5029586;28;19917;-81
2022/09/10 05:46:51;;;;;;;;;;;16.30;87.60;;;;;;5019102;28;19963;-81
2022/09/10 05:49:16;;;;;;;;;;;16.30;87.90;;;;;;5037032;28;19921;-81
2022/09/10 05:51:41;;;;;;;;;;;16.30;87.90;;;;;;5024047;28;19913;-82
2022/09/10 05:54:07;;;;;;;;;;;16.20;87.60;;;;;;5047001;28;19913;-81
2022/09/10 05:56:33;;;;;;;;;;;16.10;88.20;;;;;;5052851;28;20299;-82
2022/09/10 05:58:59;;;;;;;;;;;16.20;88.40;;;;;;5018729;28;19935;-81
2022/09/10 06:01:24;;;;;;;;;;;16.20;88.70;;;;;;5019839;28;20392;-82
2022/09/10 06:03:50;;;;;;;;;;;16.20;88.60;;;;;;5005068;28;19952;-82
2022/09/10 06:06:16;;;;;;;;;;;16.10;88.50;;;;;;5036381;28;20438;-82
2022/09/10 06:08:41;;;;;;;;;;;16.10;88.80;;;;;;5018527;28;20391;-82
2022/09/10 06:11:08;;;;;;;;;;;16.10;88.50;;;;;;5034837;28;19913;-81
2022/09/10 06:13:34;;;;;;;;;;;16.10;89.00;;;;;;5020169;28;19914;-81
2022/09/10 06:16:00;;;;;;;;;;;16.10;88.90;;;;;;5058528;28;19948;-82
2022/09/10 06:18:25;;;;;;;;;;;16.10;88.70;;;;;;5035368;28;20331;-82
2022/09/10 06:21:01;;;;;;;;;;;16.10;88.60;;;;;;5017610;28;19947;-81
2022/09/10 06:23:27;;;;;;;;;;;16.10;88.70;;;;;;5046041;28;20433;-82
2022/09/10 06:26:00;;;;;;;;;;;16.00;88.90;;;;;;5026701;28;19960;-82
2022/09/10 06:28:25;;;;;;;;;;;16.00;89.30;;;;;;5050967;28;20335;-82
2022/09/10 06:30:51;;;;;;;;;;;16.10;89.40;;;;;;5035713;28;19944;-82
2022/09/10 06:33:17;;;;;;;;;;;16.10;89.20;;;;;;5034550;28;19999;-82
2022/09/10 06:35:42;;;;;;;;;;;16.10;89.00;;;;;;5033578;28;19917;-82
2022/09/10 06:38:08;;;;;;;;;;;16.10;88.80;;;;;;5053138;28;19909;-81
2022/09/10 06:40:33;;;;;;;;;;;16.10;88.80;;;;;;5015673;28;19929;-82
2022/09/10 06:43:02;;;;;;;;;;;16.20;89.00;;;;;;5026367;28;19914;-83
2022/09/10 06:45:27;;;;;;;;;;;16.30;89.00;;;;;;5047227;28;19921;-82
2022/09/10 06:47:53;;;;;;;;;;;16.40;89.20;;;;;;5031159;28;19921;-81
2022/09/10 06:50:18;;;;;;;;;;;16.50;89.00;;;;;;5048852;28;19952;-82
2022/09/10 06:52:44;;;;;;;;;;;16.60;88.60;;;;;;5037874;28;19913;-82
2022/09/10 06:55:09;;;;;;;;;;;16.70;88.80;;;;;;5056516;28;19913;-81
2022/09/10 06:57:35;;;;;;;;;;;16.80;88.30;;;;;;5039912;28;20360;-82
2022/09/10 07:00:00;;;;;;;;;;;16.80;87.70;;;;;;5020343;28;19927;-83
2022/09/10 07:02:26;;;;;;;;;;;16.80;87.80;;;;;;5022527;28;19972;-83
2022/09/10 07:04:51;;;;;;;;;;;16.80;87.30;;;;;;5020831;28;20022;-82
2022/09/10 07:07:18;;;;;;;;;;;16.70;87.90;;;;;;5035653;28;19917;-82
2022/09/10 07:09:44;;;;;;;;;;;16.70;87.60;;;;;;5028829;28;20075;-83
2022/09/10 07:12:10;;;;;;;;;;;16.70;87.80;;;;;;5012682;28;19913;-82
2022/09/10 07:14:35;;;;;;;;;;;16.60;87.80;;;;;;5052770;28;19936;-82
2022/09/10 07:17:01;;;;;;;;;;;16.60;87.60;;;;;;5037366;28;19920;-82
2022/09/10 07:19:28;;;;;;;;;;;16.50;88.30;;;;;;5019864;28;19984;-82
2022/09/10 07:21:54;;;;;;;;;;;16.50;88.60;;;;;;5021713;28;19917;-82
2022/09/10 07:24:20;;;;;;;;;;;16.50;88.20;;;;;;5010699;28;19909;-82
2022/09/10 07:26:45;;;;;;;;;;;16.50;88.70;;;;;;5038007;28;19921;-82
2022/09/10 07:29:11;;;;;;;;;;;16.50;88.10;;;;;;5053735;28;19909;-82
2022/09/10 07:31:37;;;;;;;;;;;16.40;88.40;;;;;;5032991;28;20319;-82
2022/09/10 07:34:03;;;;;;;;;;;16.40;88.90;;;;;;5033879;28;19921;-82
2022/09/10 07:36:28;;;;;;;;;;;16.50;89.10;;;;;;5004804;28;19914;-81
2022/09/10 07:38:56;;;;;;;;;;;16.60;89.00;;;;;;5025484;28;19927;-82
2022/09/10 07:41:22;;;;;;;;;;;16.60;88.80;;;;;;5033227;28;19913;-82
2022/09/10 07:43:51;;;;;;;;;;;16.70;89.10;;;;;;5033148;28;19944;-82
2022/09/10 07:46:20;;;;;;;;;;;16.60;89.30;;;;;;5024796;28;20384;-81
2022/09/10 07:48:47;;;;;;;;;;;16.80;89.30;;;;;;5009030;28;19913;-83
2022/09/10 07:51:16;;;;;;;;;;;16.90;89.20;;;;;;5048636;28;19913;-82
2022/09/10 07:53:43;;;;;;;;;;;17.10;89.30;;;;;;5047729;28;19960;-82
2022/09/10 07:56:09;;;;;;;;;;;17.20;89.20;;;;;;5047259;28;19921;-82
2022/09/10 07:58:36;;;;;;;;;;;17.40;88.60;;;;;;5043846;28;20004;-82
2022/09/10 08:01:05;;;;;;;;;;;17.50;88.00;;;;;;5026028;28;19948;-81
2022/09/10 08:03:31;;;;;;;;;;;17.60;88.00;;;;;;5049324;28;19916;-83
2022/09/10 08:06:00;;;;;;;;;;;17.80;87.10;;;;;;5027040;28;19917;-82
2022/09/10 08:08:33;;;;;;;;;;;17.60;86.40;;;;;;5014923;28;19964;-82
2022/09/10 08:11:12;;;;;;;;;;;17.50;86.40;;;;;;5049101;28;19913;-82
2022/09/10 08:13:38;;;;;;;;;;;17.60;86.10;;;;;;5033698;28;19913;-81
2022/09/10 08:16:05;;;;;;;;;;;17.60;86.00;;;;;;5047851;28;19936;-82
2022/09/10 08:18:30;;;;;;;;;;;17.80;86.00;;;;;;5033497;28;19913;-81
2022/09/10 08:20:55;;;;;;;;;;;17.70;86.00;;;;;;5017095;28;19917;-81
2022/09/10 08:23:21;;;;;;;;;;;17.70;86.20;;;;;;5015790;28;19913;-82
2022/09/10 08:25:50;;;;;;;;;;;17.60;86.00;;;;;;5009952;28;19967;-81
2022/09/10 08:28:18;;;;;;;;;;;17.60;86.30;;;;;;5050077;28;19916;-81
2022/09/10 08:30:55;;;;;;;;;;;17.80;86.30;;;;;;5050783;28;19913;-82
2022/09/10 08:33:21;;;;;;;;;;;17.90;85.70;;;;;;5030346;28;19913;-82
2022/09/10 08:35:51;;;;;;;;;;;18.00;86.50;;;;;;5031889;28;19920;-82
2022/09/10 08:38:17;;;;;;;;;;;18.00;86.50;;;;;;5008560;28;20012;-82
2022/09/10 08:40:43;;;;;;;;;;;18.10;85.70;;;;;;5053099;28;19980;-82
2022/09/10 08:43:09;;;;;;;;;;;18.10;85.30;;;;;;5039206;28;19917;-82
2022/09/10 08:45:36;;;;;;;;;;;18.20;85.00;;;;;;5007390;28;20020;-82
2022/09/10 08:48:05;;;;;;;;;;;18.10;85.50;;;;;;5058030;28;19963;-81
2022/09/10 08:50:36;;;;;;;;;;;18.10;84.50;;;;;;5015276;28;19910;-81
2022/09/10 08:53:14;;;;;;;;;;;18.10;84.50;;;;;;5031674;28;20005;-82
2022/09/10 08:55:41;;;;;;;;;;;18.30;85.20;;;;;;5038823;28;19953;-83
2022/09/10 08:58:13;;;;;;;;;;;18.40;83.70;;;;;;5059064;28;19916;-82
2022/09/10 09:00:41;;;;;;;;;;;18.50;84.20;;;;;;5021465;28;19913;-82
2022/09/10 09:03:26;;;;;;;;;;;18.60;84.20;;;;;;5057347;28;19913;-81
2022/09/10 09:05:57;;;;;;;;;;;18.60;83.60;;;;;;5032302;28;22414;-81
2022/09/10 09:08:27;;;;;;;;;;;18.50;83.10;;;;;;5024823;28;19924;-83
2022/09/10 09:11:09;;;;;;;;;;;18.20;83.90;;;;;;5015716;28;20148;-81
2022/09/10 09:13:59;;;;;;;;;;;18.10;84.50;;;;;;5016654;28;19923;-84
2022/09/10 09:16:31;;;;;;;;;;;18.20;84.80;;;;;;5028602;28;20426;-83
2022/09/10 09:19:01;;;;;;;;;;;18.30;85.30;;;;;;5003425;28;19921;-83
2022/09/10 09:21:49;;;;;;;;;;;18.40;84.60;;;;;;5008017;28;19972;-81
2022/09/10 09:24:31;;;;;;;;;;;18.40;84.80;;;;;;5043682;28;19924;-82
2022/09/10 09:27:03;;;;;;;;;;;18.50;85.40;;;;;;5020471;28;19940;-82
2022/09/10 09:29:34;;;;;;;;;;;18.70;84.60;;;;;;5044918;28;19920;-82
2022/09/10 09:32:02;;;;;;;;;;;18.60;83.40;;;;;;5034535;28;20322;-82
2022/09/10 09:34:34;;;;;;;;;;;18.60;83.50;;;;;;5028955;28;19913;-82
2022/09/10 09:37:02;;;;;;;;;;;18.60;84.20;;;;;;5027147;28;19967;-82
2022/09/10 09:39:30;;;;;;;;;;;18.80;82.90;;;;;;5013481;28;20450;-82
2022/09/10 09:42:01;;;;;;;;;;;19.00;83.30;;;;;;5031106;28;20356;-83
2022/09/10 09:44:34;;;;;;;;;;;19.00;83.50;;;;;;5028162;28;19967;-83
2022/09/10 09:46:59;;;;;;;;;;;19.00;82.40;;;;;;5027967;28;19914;-83
2022/09/10 09:49:25;;;;;;;;;;;19.00;82.40;;;;;;5012158;28;19963;-82
2022/09/10 09:51:51;;;;;;;;;;;18.90;82.60;;;;;;5031597;28;20004;-83
2022/09/10 09:54:25;;;;;;;;;;;18.90;83.80;;;;;;5013575;28;19924;-84
2022/09/10 09:56:53;;;;;;;;;;;18.90;84.50;;;;;;5031634;28;19920;-84
2022/09/10 09:59:29;;;;;;;;;;;19.00;83.40;;;;;;5015132;28;19988;-84
2022/09/10 10:01:59;;;;;;;;;;;18.80;82.70;;;;;;5030554;28;20870;-83
2022/09/10 10:04:25;;;;;;;;;;;18.80;82.40;;;;;;5013034;28;20544;-84
2022/09/10 10:06:55;;;;;;;;;;;18.70;81.90;;;;;;5024747;28;19924;-83
2022/09/10 10:09:22;;;;;;;;;;;18.60;82.50;;;;;;5043623;28;19936;-83
2022/09/10 10:11:58;;;;;;;;;;;18.60;82.60;;;;;;5014405;28;19948;-85
2022/09/10 10:14:31;;;;;;;;;;;18.50;84.40;;;;;;5031308;28;20051;-83
2022/09/10 10:16:58;;;;;;;;;;;18.40;85.00;;;;;;5028497;28;19913;-83
2022/09/10 10:19:26;;;;;;;;;;;18.40;84.90;;;;;;5032698;28;19917;-83
2022/09/10 10:21:53;;;;;;;;;;;18.30;83.30;;;;;;5014733;28;19917;-81
2022/09/10 10:24:29;;;;;;;;;;;18.10;83.60;;;;;;5017030;28;19917;-82
2022/09/10 10:26:54;;;;;;;;;;;18.00;84.70;;;;;;5047704;28;19924;-82
2022/09/10 10:29:20;;;;;;;;;;;18.00;85.50;;;;;;5035884;28;19909;-82
2022/09/10 10:31:48;;;;;;;;;;;17.80;85.80;;;;;;5021997;28;20008;-81
2022/09/10 10:34:32;;;;;;;;;;;17.70;86.30;;;;;;5018080;28;19916;-82
2022/09/10 10:37:12;;;;;;;;;;;17.70;86.60;;;;;;5036787;28;19933;-82
2022/09/10 10:40:00;;;;;;;;;;;17.50;87.60;;;;;;5036416;28;19921;-81
2022/09/10 10:42:32;;;;;;;;;;;17.40;88.20;;;;;;5020498;28;19959;-81
2022/09/10 10:44:57;;;;;;;;;;;17.40;87.20;;;;;;5038058;28;19917;-81
2022/09/10 10:47:26;;;;;;;;;;;17.20;87.80;;;;;;5038369;28;19920;-82
2022/09/10 10:49:56;;;;;;;;;;;17.10;88.60;;;;;;5036364;28;19913;-80
2022/09/10 10:52:32;;;;;;;;;;;17.20;89.00;;;;;;5028492;28;19925;-81
2022/09/10 10:55:07;;;;;;;;;;;17.10;89.30;;;;;;5017304;28;20356;-82
2022/09/10 10:57:39;;;;;;;;;;;17.10;89.50;;;;;;5056759;28;19920;-81
2022/09/10 11:00:08;;;;;;;;;;;17.10;89.50;;;;;;5024967;28;19913;-81
2022/09/10 11:02:51;;;;;;;;;;;17.00;88.90;;;;;;5037554;28;19913;-82
2022/09/10 11:05:30;;;;;;;;;;;17.00;89.30;;;;;;5019158;28;20300;-83
2022/09/10 11:07:58;;;;;;;;;;;17.00;89.20;;;;;;4991565;22;19995;-79
2022/09/10 11:10:29;;;;;;;;;;;16.80;89.00;;;;;;5025501;28;20360;-79
2022/09/10 11:13:13;;;;;;;;;;;16.80;89.70;;;;;;5020434;28;20280;-79
2022/09/10 11:16:04;;;;;;;;;;;16.90;89.80;;;;;;5011324;28;19924;-79
2022/09/10 11:18:33;;;;;;;;;;;16.80;90.10;;;;;;4994608;28;19914;-79
2022/09/10 11:21:17;;;;;;;;;;;16.80;90.40;;;;;;5015124;28;19917;-79
2022/09/10 11:23:50;;;;;;;;;;;16.90;90.40;;;;;;5013681;28;19917;-80
2022/09/10 11:26:39;;;;;;;;;;;17.00;90.20;;;;;;5016184;28;19947;-80
2022/09/10 11:29:24;;;;;;;;;;;17.00;89.70;;;;;;4987959;28;19921;-80
2022/09/10 11:32:05;;;;;;;;;;;16.90;89.60;;;;;;5000714;28;19913;-79
2022/09/10 11:35:01;;;;;;;;;;;17.00;89.00;;;;;;5002264;28;19992;-79
2022/09/10 11:37:29;;;;;;;;;;;17.20;89.60;;;;;;4991106;28;19913;-79
2022/09/10 11:39:57;;;;;;;;;;;17.50;89.90;;;;;;5015895;28;19918;-79
2022/09/10 11:42:27;;;;;;;;;;;18.00;88.90;;;;;;5009756;28;20603;-80
2022/09/10 11:45:08;;;;;;;;;;;18.10;88.10;;;;;;5013022;28;20316;-80
2022/09/10 11:47:36;;;;;;;;;;;18.30;88.30;;;;;;5014174;28;19914;-81
2022/09/10 11:50:02;;;;;;;;;;;18.20;88.40;;;;;;5018323;28;20410;-81
2022/09/10 11:52:30;;;;;;;;;;;18.40;86.60;;;;;;5001049;28;19909;-81
2022/09/10 11:54:56;;;;;;;;;;;18.50;87.10;;;;;;5015775;28;19914;-79
2022/09/10 11:57:22;;;;;;;;;;;18.60;87.30;;;;;;5010882;28;20016;-81
2022/09/10 11:59:56;;;;;;;;;;;18.70;85.80;;;;;;5000356;28;19971;-80
2022/09/10 12:02:36;;;;;;;;;;;18.60;86.00;;;;;;4999221;28;19929;-81
2022/09/10 12:05:22;;;;;;;;;;;18.50;85.30;;;;;;5016132;28;19920;-81
2022/09/10 12:07:48;;;;;;;;;;;18.50;85.10;;;;;;4994147;28;19925;-78
2022/09/10 12:10:33;;;;;;;;;;;18.50;84.90;;;;;;4995172;28;20380;-79
2022/09/10 12:12:59;;;;;;;;;;;18.50;85.40;;;;;;4996456;28;19967;-79
2022/09/10 12:15:35;;;;;;;;;;;18.40;85.20;;;;;;5012679;28;19960;-78
2022/09/10 12:18:05;;;;;;;;;;;18.40;86.10;;;;;;5015782;28;20385;-79
2022/09/10 12:20:32;;;;;;;;;;;18.50;86.70;;;;;;4990489;28;19909;-79
2022/09/10 12:22:58;;;;;;;;;;;18.60;86.10;;;;;;5011527;28;19928;-79
2022/09/10 12:25:25;;;;;;;;;;;18.70;86.60;;;;;;5012595;28;19924;-78
2022/09/10 12:27:57;;;;;;;;;;;18.70;85.80;;;;;;5016301;28;19914;-78
2022/09/10 12:30:29;;;;;;;;;;;18.80;85.30;;;;;;5012576;28;19922;-78
2022/09/10 12:32:59;;;;;;;;;;;18.60;85.30;;;;;;4995613;28;20277;-78
2022/09/10 12:35:31;;;;;;;;;;;18.60;85.60;;;;;;5011790;28;19921;-78
2022/09/10 12:38:16;;;;;;;;;;;18.50;86.00;;;;;;5014422;28;19956;-79
2022/09/10 12:40:43;;;;;;;;;;;18.50;85.80;;;;;;4998568;28;19917;-77
2022/09/10 12:43:27;;;;;;;;;;;18.60;85.70;;;;;;5018279;28;19944;-78
2022/09/10 12:46:07;;;;;;;;;;;18.60;86.00;;;;;;5008742;28;19968;-79
2022/09/10 12:48:34;;;;;;;;;;;18.60;85.60;;;;;;5013343;28;19914;-77
2022/09/10 12:51:04;;;;;;;;;;;18.60;85.70;;;;;;5011143;28;19913;-78
2022/09/10 12:53:39;;;;;;;;;;;18.40;86.00;;;;;;5014506;28;20269;-78
2022/09/10 12:56:15;;;;;;;;;;;18.40;85.90;;;;;;4995075;28;19949;-78
2022/09/10 12:59:00;;;;;;;;;;;18.30;86.70;;;;;;5006626;28;20428;-79
2022/09/10 13:01:40;;;;;;;;;;;18.10;87.10;;;;;;5008546;28;19967;-78
2022/09/10 13:04:18;;;;;;;;;;;18.10;86.60;;;;;;5010699;28;20352;-79
2022/09/10 13:06:46;;;;;;;;;;;18.10;87.30;;;;;;5013296;28;20101;-78
2022/09/10 13:09:41;;;;;;;;;;;18.00;87.10;;;;;;5012024;28;19918;-78
2022/09/10 13:12:16;;;;;;;;;;;17.90;87.20;;;;;;4980069;28;20012;-79
2022/09/10 13:14:44;;;;;;;;;;;17.80;87.80;;;;;;5013959;28;19913;-78
2022/09/10 13:17:30;;;;;;;;;;;17.80;87.70;;;;;;5005690;28;20032;-78
2022/09/10 13:20:11;;;;;;;;;;;17.80;88.00;;;;;;5007121;28;20023;-78
2022/09/10 13:22:54;;;;;;;;;;;17.70;88.40;;;;;;5003109;28;19913;-78
2022/09/10 13:25:31;;;;;;;;;;;17.70;88.20;;;;;;5012713;28;19921;-78
2022/09/10 13:27:56;;;;;;;;;;;17.70;89.00;;;;;;5011831;28;20266;-78
2022/09/10 13:30:22;;;;;;;;;;;17.80;89.10;;;;;;5014458;28;19985;-79
2022/09/10 13:32:48;;;;;;;;;;;17.80;88.90;;;;;;5013647;28;19910;-79
2022/09/10 13:35:18;;;;;;;;;;;17.80;88.90;;;;;;5013114;28;19919;-78
2022/09/10 13:37:46;;;;;;;;;;;17.60;89.00;;;;;;5013201;28;19913;-77
2022/09/10 13:40:30;;;;;;;;;;;17.60;89.10;;;;;;5013787;28;19956;-79
2022/09/10 13:42:56;;;;;;;;;;;17.60;89.30;;;;;;5002008;28;19967;-78
2022/09/10 13:45:38;;;;;;;;;;;17.60;89.50;;;;;;5007027;28;20036;-78
2022/09/10 13:48:07;;;;;;;;;;;17.60;89.50;;;;;;5006073;28;19956;-78
2022/09/10 13:50:44;;;;;;;;;;;17.70;89.50;;;;;;5000524;28;19914;-77
2022/09/10 13:53:11;;;;;;;;;;;17.80;89.20;;;;;;5017534;28;19933;-77
2022/09/10 13:55:36;;;;;;;;;;;17.60;89.90;;;;;;5018662;28;20292;-77
2022/09/10 13:58:10;;;;;;;;;;;17.50;90.20;;;;;;5014550;28;19918;-78
2022/09/10 14:00:40;;;;;;;;;;;17.60;90.40;;;;;;5014375;28;19925;-78
2022/09/10 14:03:19;;;;;;;;;;;17.60;89.70;;;;;;4998647;28;19996;-78
2022/09/10 14:05:47;;;;;;;;;;;17.50;90.30;;;;;;5012362;28;20015;-78
2022/09/10 14:08:16;;;;;;;;;;;17.60;90.20;;;;;;5006329;28;19928;-77
2022/09/10 14:10:51;;;;;;;;;;;17.50;90.20;;;;;;4995302;28;19921;-78
2022/09/10 14:13:21;;;;;;;;;;;17.40;90.20;;;;;;5014000;28;20384;-77
2022/09/10 14:15:48;;;;;;;;;;;17.30;90.60;;;;;;5014698;28;19975;-78
2022/09/10 14:18:14;;;;;;;;;;;17.30;90.30;;;;;;4989003;28;19918;-77
2022/09/10 14:20:39;;;;;;;;;;;17.30;90.30;;;;;;5012407;28;19996;-77
2022/09/10 14:23:06;;;;;;;;;;;17.30;90.20;;;;;;4996089;28;19993;-78
2022/09/10 14:25:33;;;;;;;;;;;17.30;90.20;;;;;;4992694;28;19917;-78
2022/09/10 14:28:14;;;;;;;;;;;17.30;90.00;;;;;;5013222;28;19924;-78